createdAt,value
2019-03-29T00:02:27.601Z,1.98
2019-03-29T00:07:39.486Z,1.67
2019-03-29T00:12:36.244Z,1.17
2019-03-29T00:17:39.889Z,1.40
2019-03-29T00:22:43.359Z,1.37
2019-03-29T00:27:46.841Z,3.02
2019-03-29T00:32:50.300Z,3.30
2019-03-29T00:37:55.743Z,3.17
2019-03-29T00:42:58.970Z,1.72
2019-03-29T00:48:02.457Z,2.22
2019-03-29T00:53:05.929Z,1.65
2019-03-29T00:58:09.404Z,1.05
2019-03-29T01:03:12.895Z,1.20
2019-03-29T01:08:16.351Z,1.60
2019-03-29T01:13:19.825Z,2.17
2019-03-29T01:18:23.302Z,1.75
2019-03-29T01:23:26.782Z,1.07
2019-03-29T01:28:30.241Z,0.87
2019-03-29T01:33:33.700Z,1.72
2019-03-29T01:38:37.164Z,1.17
2019-03-29T01:43:40.622Z,1.70
2019-03-29T01:48:44.082Z,1.43
2019-03-29T01:53:47.544Z,1.95
2019-03-29T01:58:51.020Z,1.50
2019-03-29T02:03:54.797Z,1.80
2019-03-29T02:08:58.198Z,1.82
2019-03-29T02:14:01.656Z,1.10
2019-03-29T02:19:05.283Z,1.40
2019-03-29T02:24:09.463Z,1.20
2019-03-29T02:29:12.925Z,1.20
2019-03-29T02:34:16.423Z,1.40
2019-03-29T02:39:19.847Z,1.62
2019-03-29T02:44:23.333Z,1.37
2019-03-29T02:49:26.821Z,2.72
2019-03-29T02:54:30.287Z,1.62
2019-03-29T02:59:33.745Z,1.32
2019-03-29T03:04:37.205Z,0.95
2019-03-29T03:09:40.665Z,0.93
2019-03-29T03:14:44.126Z,1.30
2019-03-29T03:19:47.586Z,1.10
2019-03-29T03:24:51.048Z,1.27
2019-03-29T03:29:54.497Z,1.00
2019-03-29T03:34:57.969Z,1.10
2019-03-29T03:40:01.418Z,0.82
2019-03-29T03:45:09.057Z,1.78
2019-03-29T03:50:32.275Z,1.63
2019-03-29T03:55:38.383Z,0.80
2019-03-29T04:00:53.283Z,1.00
2019-03-29T04:05:57.407Z,1.22
2019-03-29T04:11:00.875Z,1.32
2019-03-29T04:16:04.332Z,1.12
2019-03-29T04:21:07.798Z,1.05
2019-03-29T04:26:11.255Z,0.90
2019-03-29T04:31:14.712Z,1.12
2019-03-29T04:36:18.166Z,1.37
2019-03-29T04:41:21.619Z,1.30
2019-03-29T04:46:25.077Z,0.72
2019-03-29T04:51:28.539Z,1.10
2019-03-29T04:56:31.991Z,1.47
2019-03-29T05:01:35.454Z,1.15
2019-03-29T05:06:38.913Z,1.75
2019-03-29T05:11:42.368Z,1.47
2019-03-29T05:16:45.831Z,0.77
2019-03-29T05:21:49.295Z,1.22
2019-03-29T05:26:52.755Z,4.12
2019-03-29T05:31:56.214Z,0.90
2019-03-29T05:36:59.673Z,0.88
2019-03-29T05:42:03.133Z,1.00
2019-03-29T05:47:06.595Z,1.77
2019-03-29T05:52:10.052Z,1.02
2019-03-29T05:57:13.512Z,1.12
2019-03-29T06:02:16.979Z,1.05
2019-03-29T06:07:20.428Z,1.90
2019-03-29T06:12:23.879Z,1.37
2019-03-29T06:17:27.335Z,1.47
2019-03-29T06:22:30.791Z,1.30
2019-03-29T06:27:34.253Z,0.82
2019-03-29T06:32:37.703Z,0.85
2019-03-29T06:37:44.399Z,1.15
2019-03-29T06:42:47.856Z,0.85
2019-03-29T06:47:51.318Z,0.88
2019-03-29T06:52:54.778Z,1.50
2019-03-29T06:57:58.231Z,0.90
2019-03-29T07:03:01.690Z,1.07
2019-03-29T07:08:05.147Z,0.88
2019-03-29T07:13:08.620Z,1.27
2019-03-29T07:18:12.087Z,1.00
2019-03-29T07:23:15.539Z,1.37
2019-03-29T07:28:18.998Z,1.47
2019-03-29T07:33:22.454Z,0.47
2019-03-29T07:38:25.910Z,1.87
2019-03-29T07:43:29.374Z,0.95
2019-03-29T07:48:32.833Z,0.60
2019-03-29T07:53:36.294Z,9.65
2019-03-29T07:58:39.761Z,10.93
2019-03-29T08:03:43.231Z,11.10
2019-03-29T08:08:46.693Z,11.45
2019-03-29T08:13:50.161Z,10.65
2019-03-29T08:18:53.629Z,11.63
2019-03-29T08:23:57.079Z,9.33
2019-03-29T08:29:00.541Z,8.48
2019-03-29T08:34:04.070Z,6.03
2019-03-29T08:39:10.197Z,4.45
2019-03-29T08:44:13.276Z,4.97
2019-03-29T08:49:17.264Z,4.07
2019-03-29T08:54:20.772Z,4.08
2019-03-29T08:59:24.232Z,4.83
2019-03-29T09:04:27.852Z,2.33
2019-03-29T09:09:31.309Z,5.80
2019-03-29T09:14:34.767Z,3.03
2019-03-29T09:19:38.229Z,3.63
2019-03-29T09:24:41.684Z,9.35
2019-03-29T09:29:45.156Z,5.37
2019-03-29T09:34:48.606Z,2.50
2019-03-29T09:39:52.064Z,5.30
2019-03-29T09:44:55.533Z,4.10
2019-03-29T09:49:58.978Z,3.00
2019-03-29T09:55:02.461Z,3.75
2019-03-29T10:00:19.382Z,20.75
2019-03-29T10:05:14.056Z,10.07
2019-03-29T10:10:17.517Z,11.13
2019-03-29T10:15:20.975Z,6.80
2019-03-29T10:20:24.437Z,10.10
2019-03-29T10:25:27.897Z,5.30
2019-03-29T10:30:46.051Z,4.67
2019-03-29T10:35:52.241Z,3.83
2019-03-29T10:40:52.690Z,4.08
2019-03-29T10:45:56.315Z,4.25
2019-03-29T10:51:00.411Z,4.40
2019-03-29T10:56:04.204Z,6.47
2019-03-29T11:01:07.733Z,4.10
2019-03-29T11:06:11.188Z,3.40
2019-03-29T11:11:14.642Z,1.67
2019-03-29T11:16:18.103Z,2.27
2019-03-29T11:21:21.639Z,3.60
2019-03-29T11:26:25.092Z,3.45
2019-03-29T11:31:28.554Z,2.47
2019-03-29T11:36:32.014Z,1.90
2019-03-29T11:41:35.468Z,4.00
2019-03-29T11:46:38.933Z,2.20
2019-03-29T11:51:42.392Z,2.87
2019-03-29T11:56:47.614Z,3.10
2019-03-29T12:01:51.041Z,2.47
2019-03-29T12:06:54.496Z,4.90
2019-03-29T12:11:57.954Z,2.65
2019-03-29T12:17:01.422Z,11.38
2019-03-29T12:22:04.876Z,5.30
2019-03-29T12:27:08.332Z,0.70
2019-03-29T12:32:11.794Z,2.20
2019-03-29T12:37:15.254Z,2.08
2019-03-29T12:42:18.722Z,2.12
2019-03-29T12:47:22.181Z,1.45
2019-03-29T12:52:25.635Z,1.07
2019-03-29T12:57:29.095Z,1.62
2019-03-29T13:02:34.561Z,1.02
2019-03-29T13:07:37.739Z,0.95
2019-03-29T13:12:41.196Z,2.40
2019-03-29T13:17:44.653Z,0.57
2019-03-29T13:22:48.115Z,1.75
2019-03-29T13:27:51.581Z,1.90
2019-03-29T13:32:55.037Z,0.47
2019-03-29T13:37:58.493Z,0.78
2019-03-29T13:43:02.801Z,0.60
2019-03-29T13:48:06.261Z,1.47
2019-03-29T13:53:09.733Z,2.90
2019-03-29T13:58:13.176Z,1.12
2019-03-29T14:03:16.642Z,2.85
2019-03-29T14:08:20.095Z,0.80
2019-03-29T14:13:23.997Z,4.17
2019-03-29T14:18:27.447Z,2.13
2019-03-29T14:23:30.904Z,0.77
2019-03-29T14:28:34.362Z,3.30
2019-03-29T14:33:37.824Z,1.00
2019-03-29T14:38:41.276Z,4.17
2019-03-29T14:43:44.739Z,1.95
2019-03-29T14:48:48.191Z,2.90
2019-03-29T14:53:51.654Z,0.98
2019-03-29T14:58:55.116Z,3.20
2019-03-29T15:03:58.573Z,3.47
2019-03-29T15:09:05.071Z,2.50
2019-03-29T15:14:08.529Z,0.93
2019-03-29T15:19:11.982Z,1.10
2019-03-29T15:24:15.446Z,2.40
2019-03-29T15:29:18.904Z,1.27
2019-03-29T15:34:22.364Z,1.40
2019-03-29T15:39:25.820Z,1.40
2019-03-29T15:44:29.690Z,1.40
2019-03-29T15:49:33.144Z,1.57
2019-03-29T15:54:36.607Z,1.07
2019-03-29T15:59:40.069Z,1.45
2019-03-29T16:04:43.806Z,2.13
2019-03-29T16:09:47.266Z,1.47
2019-03-29T16:14:51.593Z,2.93
2019-03-29T16:19:55.582Z,1.30
2019-03-29T16:24:59.037Z,1.10
2019-03-29T16:30:02.499Z,0.85
2019-03-29T16:35:07.823Z,3.30
2019-03-29T16:40:11.623Z,1.57
2019-03-29T16:45:15.082Z,2.03
2019-03-29T16:50:18.535Z,4.03
2019-03-29T16:55:21.993Z,0.70
2019-03-29T17:00:25.453Z,2.10
2019-03-29T17:05:28.910Z,0.60
2019-03-29T17:10:32.365Z,1.87
2019-03-29T17:15:35.823Z,1.35
2019-03-29T17:20:39.289Z,1.50
2019-03-29T17:25:42.769Z,0.87
2019-03-29T17:30:50.316Z,2.23
2019-03-29T17:35:53.785Z,0.98
2019-03-29T17:40:57.260Z,1.25
2019-03-29T17:46:15.153Z,4.90
2019-03-29T17:51:05.933Z,2.27
2019-03-29T17:56:09.407Z,0.90
2019-03-29T18:01:12.881Z,2.77
2019-03-29T18:06:16.359Z,4.80
2019-03-29T18:11:19.831Z,4.07
2019-03-29T18:16:30.409Z,0.60
2019-03-29T18:21:28.505Z,1.20
2019-03-29T18:26:32.047Z,1.87
2019-03-29T18:31:35.803Z,2.53
2019-03-29T18:36:40.209Z,0.75
2019-03-29T18:41:43.675Z,1.93
2019-03-29T18:46:47.234Z,2.35
2019-03-29T18:51:50.711Z,1.47
2019-03-29T18:56:54.178Z,1.22
2019-03-29T19:01:57.701Z,0.72
2019-03-29T19:07:01.160Z,1.50
2019-03-29T19:12:04.612Z,0.70
2019-03-29T19:17:08.069Z,1.10
2019-03-29T19:22:11.536Z,0.88
2019-03-29T19:27:15.159Z,1.03
2019-03-29T19:32:18.615Z,1.70
2019-03-29T19:37:22.072Z,0.80
2019-03-29T19:42:25.527Z,2.20
2019-03-29T19:47:28.984Z,2.47
2019-03-29T19:52:32.440Z,1.47
2019-03-29T19:57:35.900Z,1.53
2019-03-29T20:02:39.354Z,2.03
2019-03-29T20:07:42.816Z,3.97
2019-03-29T20:12:46.272Z,2.17
2019-03-29T20:17:49.728Z,2.75
2019-03-29T20:22:54.725Z,1.50
2019-03-29T20:27:58.939Z,4.07
2019-03-29T20:33:02.395Z,2.73
2019-03-29T20:38:05.858Z,3.70
2019-03-29T20:43:09.319Z,3.77
2019-03-29T20:48:12.773Z,2.13
2019-03-29T20:53:16.235Z,2.10
2019-03-29T20:58:19.698Z,4.00
2019-03-29T21:03:23.157Z,4.33
2019-03-29T21:08:26.613Z,3.60
2019-03-29T21:13:30.107Z,2.67
2019-03-29T21:18:33.533Z,2.13
2019-03-29T21:23:36.994Z,2.07
2019-03-29T21:28:40.449Z,2.83
2019-03-29T21:33:43.906Z,2.60
2019-03-29T21:38:47.361Z,1.50
2019-03-29T21:43:50.822Z,2.00
2019-03-29T21:48:54.275Z,2.13
2019-03-29T21:53:57.732Z,2.40
2019-03-29T21:59:01.188Z,2.35
2019-03-29T22:04:04.812Z,3.17
2019-03-29T22:09:08.808Z,1.73
2019-03-29T22:14:12.272Z,1.80
2019-03-29T22:19:15.726Z,2.53
2019-03-29T22:24:19.183Z,3.07
2019-03-29T22:29:22.641Z,2.93
2019-03-29T22:34:26.096Z,2.02
2019-03-29T22:39:29.560Z,2.73
2019-03-29T22:44:33.021Z,1.65
2019-03-29T22:49:36.476Z,2.13
2019-03-29T22:54:39.937Z,1.82
2019-03-29T22:59:43.401Z,1.70
2019-03-29T23:04:47.193Z,1.65
2019-03-29T23:09:50.700Z,1.63
2019-03-29T23:14:54.160Z,2.37
2019-03-29T23:19:57.621Z,2.00
2019-03-29T23:25:01.086Z,1.70
2019-03-29T23:30:06.902Z,2.70
2019-03-29T23:35:10.356Z,1.70
2019-03-29T23:40:13.818Z,1.85
2019-03-29T23:45:17.450Z,1.47
2019-03-29T23:50:20.908Z,2.13
2019-03-29T23:55:24.363Z,1.40
